createdAt,value
2019-02-02T00:00:22.023Z,28.07
2019-02-02T00:02:49.238Z,27.63
2019-02-02T00:05:16.290Z,26.20
2019-02-02T00:07:43.387Z,26.23
2019-02-02T00:10:16.497Z,27.63
2019-02-02T00:12:43.591Z,27.90
2019-02-02T00:15:17.048Z,29.27
2019-02-02T00:17:44.091Z,27.70
2019-02-02T00:20:11.468Z,25.70
2019-02-02T00:22:38.571Z,25.83
2019-02-02T00:25:06.127Z,25.80
2019-02-02T00:27:41.084Z,27.53
2019-02-02T00:30:03.401Z,25.10
2019-02-02T00:32:30.555Z,24.13
2019-02-02T00:34:57.674Z,24.77
2019-02-02T00:37:24.809Z,24.80
2019-02-02T00:39:51.895Z,24.30
2019-02-02T00:42:18.963Z,27.00
2019-02-02T00:44:46.167Z,25.23
2019-02-02T00:47:13.324Z,26.40
2019-02-02T00:49:40.390Z,26.33
2019-02-02T00:52:07.742Z,25.73
2019-02-02T00:54:34.884Z,24.23
2019-02-02T00:57:01.950Z,25.90
2019-02-02T00:59:29.066Z,26.70
2019-02-02T01:01:56.593Z,27.37
2019-02-02T01:04:23.671Z,27.23
2019-02-02T01:06:50.789Z,25.33
2019-02-02T01:09:24.463Z,26.27
2019-02-02T01:11:51.637Z,24.97
2019-02-02T01:14:18.971Z,24.77
2019-02-02T01:17:28.224Z,25.57
2019-02-02T01:19:55.312Z,24.53
2019-02-02T01:22:22.379Z,23.90
2019-02-02T01:24:49.476Z,23.97
2019-02-02T01:27:16.563Z,23.40
2019-02-02T01:29:43.610Z,24.80
2019-02-02T01:32:13.802Z,25.57
2019-02-02T01:34:39.801Z,24.40
2019-02-02T01:37:06.852Z,27.03
2019-02-02T01:39:33.935Z,27.33
2019-02-02T01:42:01.271Z,25.10
2019-02-02T01:44:28.317Z,26.63
2019-02-02T01:46:55.437Z,25.47
2019-02-02T01:49:22.510Z,26.67
2019-02-02T01:51:49.599Z,27.97
2019-02-02T01:54:16.687Z,29.53
2019-02-02T01:56:43.741Z,27.00
2019-02-02T01:59:10.837Z,28.20
2019-02-02T02:01:38.212Z,27.53
2019-02-02T02:04:05.363Z,28.03
2019-02-02T02:06:32.434Z,27.70
2019-02-02T02:08:59.622Z,29.73
2019-02-02T02:11:26.700Z,28.17
2019-02-02T02:13:53.811Z,29.13
2019-02-02T02:16:21.890Z,30.17
2019-02-02T02:18:49.013Z,29.77
2019-02-02T02:21:31.456Z,28.17
2019-02-02T02:23:58.543Z,30.63
2019-02-02T02:26:25.590Z,30.63
2019-02-02T02:28:52.633Z,29.27
2019-02-02T02:31:19.865Z,29.03
2019-02-02T02:33:46.905Z,31.50
2019-02-02T02:36:14.195Z,33.43
2019-02-02T02:38:42.992Z,29.57
2019-02-02T02:41:10.108Z,30.03
2019-02-02T02:43:37.113Z,30.37
2019-02-02T02:46:04.533Z,31.80
2019-02-02T02:48:31.569Z,31.70
2019-02-02T02:50:58.638Z,31.53
2019-02-02T02:53:25.708Z,29.70
2019-02-02T02:55:52.778Z,29.80
2019-02-02T02:58:19.967Z,30.50
2019-02-02T03:00:47.038Z,28.87
2019-02-02T03:03:14.101Z,30.53
2019-02-02T03:05:41.256Z,28.87
2019-02-02T03:08:08.458Z,31.07
2019-02-02T03:10:35.498Z,31.87
2019-02-02T03:13:02.948Z,32.93
2019-02-02T03:15:30.030Z,33.17
2019-02-02T03:17:57.075Z,32.00
2019-02-02T03:20:24.135Z,32.17
2019-02-02T03:22:51.232Z,35.00
2019-02-02T03:25:20.265Z,31.70
2019-02-02T03:27:47.338Z,35.73
2019-02-02T03:30:16.113Z,33.43
2019-02-02T03:32:43.177Z,34.60
2019-02-02T03:35:11.166Z,32.57
2019-02-02T03:37:38.480Z,33.87
2019-02-02T03:40:08.532Z,33.23
2019-02-02T03:42:35.590Z,33.53
2019-02-02T03:45:02.799Z,37.07
2019-02-02T03:47:29.850Z,34.43
2019-02-02T03:49:56.911Z,34.07
2019-02-02T03:52:24.248Z,34.10
2019-02-02T03:54:51.301Z,35.23
2019-02-02T03:57:18.340Z,35.57
2019-02-02T03:59:45.409Z,36.33
2019-02-02T04:02:12.500Z,34.47
2019-02-02T04:04:39.559Z,37.70
2019-02-02T04:07:06.641Z,37.23
2019-02-02T04:09:33.699Z,36.27
2019-02-02T04:12:00.859Z,38.50
2019-02-02T04:14:27.983Z,36.10
2019-02-02T04:16:55.350Z,35.90
2019-02-02T04:19:22.417Z,36.83
2019-02-02T04:21:49.507Z,38.50
2019-02-02T04:24:16.570Z,38.47
2019-02-02T04:26:43.736Z,38.97
2019-02-02T04:29:17.656Z,39.80
2019-02-02T04:31:40.067Z,39.87
2019-02-02T04:34:07.226Z,40.83
2019-02-02T04:36:34.365Z,40.40
2019-02-02T04:39:01.410Z,40.57
2019-02-02T04:41:28.449Z,41.30
2019-02-02T04:43:55.536Z,44.07
2019-02-02T04:46:22.584Z,41.17
2019-02-02T04:48:49.647Z,42.00
2019-02-02T04:51:16.743Z,41.67
2019-02-02T04:53:43.790Z,39.73
2019-02-02T04:56:10.895Z,40.93
2019-02-02T04:58:40.774Z,42.57
2019-02-02T05:01:07.841Z,43.00
2019-02-02T05:03:35.141Z,44.00
2019-02-02T05:06:02.194Z,42.10
2019-02-02T05:08:29.239Z,41.00
2019-02-02T05:10:56.324Z,41.77
2019-02-02T05:13:23.391Z,45.67
2019-02-02T05:15:50.394Z,42.97
2019-02-02T05:18:17.501Z,44.57
2019-02-02T05:20:44.566Z,43.20
2019-02-02T05:23:11.606Z,45.33
2019-02-02T05:25:38.687Z,42.33
2019-02-02T05:28:05.797Z,43.23
2019-02-02T05:30:32.849Z,44.07
2019-02-02T05:32:59.910Z,46.77
2019-02-02T05:35:26.985Z,45.30
2019-02-02T05:37:54.654Z,46.60
2019-02-02T05:40:21.735Z,43.00
2019-02-02T05:42:49.010Z,46.57
2019-02-02T05:45:17.762Z,47.77
2019-02-02T05:47:44.816Z,47.50
2019-02-02T05:50:13.825Z,48.03
2019-02-02T05:52:40.874Z,46.33
2019-02-02T05:55:09.417Z,44.00
2019-02-02T05:57:36.502Z,46.40
2019-02-02T06:00:06.900Z,49.53
2019-02-02T06:02:33.932Z,45.87
2019-02-02T06:05:01.231Z,48.77
2019-02-02T06:07:28.278Z,48.73
2019-02-02T06:09:55.327Z,48.50
2019-02-02T06:12:22.409Z,49.80
2019-02-02T06:14:51.005Z,48.87
2019-02-02T06:17:18.037Z,48.27
2019-02-02T06:19:45.190Z,48.67
2019-02-02T06:22:12.246Z,50.17
2019-02-02T06:24:39.298Z,50.10
2019-02-02T06:27:06.411Z,49.60
2019-02-02T06:29:33.484Z,53.13
2019-02-02T06:32:10.988Z,51.67
2019-02-02T06:34:29.758Z,49.10
2019-02-02T06:36:56.855Z,53.20
2019-02-02T06:39:23.928Z,50.73
2019-02-02T06:41:51.065Z,51.73
2019-02-02T06:44:18.416Z,50.40
2019-02-02T06:46:45.457Z,50.60
2019-02-02T06:49:12.703Z,52.60
2019-02-02T06:51:39.872Z,50.53
2019-02-02T06:54:06.925Z,53.07
2019-02-02T06:56:34.016Z,48.73
2019-02-02T06:59:01.220Z,50.03
2019-02-02T07:01:28.331Z,50.57
2019-02-02T07:03:55.442Z,51.87
2019-02-02T07:06:22.520Z,55.00
2019-02-02T07:08:49.563Z,52.20
2019-02-02T07:11:16.678Z,51.70
2019-02-02T07:13:43.729Z,52.30
2019-02-02T07:16:10.845Z,50.27
2019-02-02T07:18:37.940Z,50.73
2019-02-02T07:21:04.997Z,52.27
2019-02-02T07:23:32.075Z,53.73
2019-02-02T07:25:59.174Z,55.03
2019-02-02T07:28:27.352Z,53.50
2019-02-02T07:30:54.412Z,55.10
2019-02-02T07:33:22.883Z,55.23
2019-02-02T07:35:49.958Z,57.70
2019-02-02T07:38:17.016Z,57.00
2019-02-02T07:40:44.087Z,54.73
2019-02-02T07:43:11.172Z,57.27
2019-02-02T07:45:38.483Z,56.70
2019-02-02T07:48:05.652Z,58.93
2019-02-02T07:50:32.726Z,58.43
2019-02-02T07:53:00.037Z,56.60
2019-02-02T07:55:27.056Z,59.03
2019-02-02T07:57:54.441Z,56.67
2019-02-02T08:00:40.168Z,57.70
2019-02-02T08:02:58.771Z,59.60
2019-02-02T08:05:26.008Z,61.17
2019-02-02T08:07:53.125Z,62.40
2019-02-02T08:10:20.598Z,59.53
2019-02-02T08:12:48.176Z,58.47
2019-02-02T08:15:20.726Z,59.13
2019-02-02T08:17:48.184Z,60.63
2019-02-02T08:20:15.481Z,59.20
2019-02-02T08:22:42.827Z,59.83
2019-02-02T08:25:11.394Z,60.47
2019-02-02T08:27:38.481Z,58.27
2019-02-02T08:30:12.510Z,60.03
2019-02-02T08:32:39.596Z,58.93
2019-02-02T08:36:16.076Z,62.53
2019-02-02T08:38:49.757Z,57.67
2019-02-02T08:41:16.811Z,56.93
2019-02-02T08:43:43.964Z,56.97
2019-02-02T08:46:12.681Z,59.03
2019-02-02T08:48:39.751Z,60.23
2019-02-02T08:51:16.594Z,61.07
2019-02-02T08:53:43.654Z,61.60
2019-02-02T08:56:10.790Z,61.43
2019-02-02T08:58:38.069Z,62.87
2019-02-02T09:01:05.168Z,59.27
2019-02-02T09:03:32.319Z,64.00
2019-02-02T09:05:59.472Z,61.33
2019-02-02T09:08:26.927Z,59.50
2019-02-02T09:11:01.188Z,62.97
2019-02-02T09:13:28.288Z,61.30
2019-02-02T09:15:55.547Z,59.57
2019-02-02T09:18:24.002Z,62.07
2019-02-02T09:20:51.085Z,59.23
2019-02-02T09:23:18.253Z,53.70
2019-02-02T09:25:45.353Z,67.33
2019-02-02T09:28:12.487Z,63.27
2019-02-02T09:30:39.883Z,62.80
2019-02-02T09:33:07.521Z,58.50
2019-02-02T09:35:34.604Z,57.53
2019-02-02T09:38:01.896Z,61.97
2019-02-02T09:40:29.086Z,58.17
2019-02-02T09:42:56.163Z,57.17
2019-02-02T09:45:23.720Z,60.47
2019-02-02T09:47:51.150Z,54.17
2019-02-02T09:50:20.551Z,54.83
2019-02-02T09:52:47.763Z,58.50
2019-02-02T09:55:16.669Z,60.73
2019-02-02T09:57:43.831Z,59.23
2019-02-02T10:00:19.682Z,61.10
2019-02-02T10:02:46.874Z,61.80
2019-02-02T10:05:14.072Z,62.27
2019-02-02T10:07:41.229Z,60.03
2019-02-02T10:10:12.918Z,61.10
2019-02-02T10:12:45.400Z,62.90
2019-02-02T10:15:12.916Z,63.20
2019-02-02T10:17:39.951Z,61.77
2019-02-02T10:20:09.150Z,61.70
2019-02-02T10:22:36.248Z,59.73
2019-02-02T10:25:05.203Z,58.33
2019-02-02T10:27:32.309Z,60.03
2019-02-02T10:29:59.476Z,58.37
2019-02-02T10:32:26.605Z,61.83
2019-02-02T10:34:53.757Z,57.20
2019-02-02T10:37:20.827Z,58.33
2019-02-02T10:39:48.403Z,61.20
2019-02-02T10:42:17.322Z,59.43
2019-02-02T10:44:44.387Z,60.97
2019-02-02T10:47:11.595Z,60.90
2019-02-02T10:49:38.644Z,64.20
2019-02-02T10:52:05.776Z,59.13
2019-02-02T10:54:35.084Z,64.77
2019-02-02T10:57:02.108Z,63.27
2019-02-02T10:59:29.296Z,59.60
2019-02-02T11:01:56.408Z,66.67
2019-02-02T11:04:23.500Z,62.17
2019-02-02T11:06:50.586Z,62.53
2019-02-02T11:09:17.918Z,69.90
2019-02-02T11:11:45.112Z,62.10
2019-02-02T11:14:12.300Z,63.80
2019-02-02T11:16:39.765Z,60.37
2019-02-02T11:19:06.935Z,63.37
2019-02-02T11:21:34.389Z,62.07
2019-02-02T11:24:01.527Z,62.33
2019-02-02T11:26:28.595Z,61.23
2019-02-02T11:28:55.772Z,61.90
2019-02-02T11:31:22.853Z,62.77
2019-02-02T11:33:50.008Z,63.73
2019-02-02T11:36:17.106Z,61.13
2019-02-02T11:38:46.473Z,61.07
2019-02-02T11:41:13.595Z,65.57
2019-02-02T11:43:40.711Z,63.67
2019-02-02T11:46:07.837Z,63.27
2019-02-02T11:48:36.280Z,68.03
2019-02-02T11:51:03.337Z,66.80
2019-02-02T11:53:30.500Z,67.73
2019-02-02T11:55:57.630Z,65.17
2019-02-02T11:58:24.699Z,68.37
2019-02-02T12:00:51.832Z,65.53
2019-02-02T12:03:19.007Z,65.17
2019-02-02T12:05:46.101Z,68.57
2019-02-02T12:08:13.189Z,63.23
2019-02-02T12:10:40.312Z,62.70
2019-02-02T12:13:07.411Z,65.50
2019-02-02T12:15:34.488Z,64.67
2019-02-02T12:18:01.811Z,66.23
2019-02-02T12:20:29.088Z,65.50
2019-02-02T12:22:56.181Z,63.77
2019-02-02T12:25:23.508Z,63.50
2019-02-02T12:27:50.564Z,66.77
2019-02-02T12:30:20.060Z,64.00
2019-02-02T12:32:47.193Z,68.87
2019-02-02T12:35:16.669Z,67.57
2019-02-02T12:37:43.716Z,66.23
2019-02-02T12:40:11.731Z,65.50
2019-02-02T12:42:38.969Z,64.93
2019-02-02T12:45:09.719Z,64.53
2019-02-02T12:47:36.823Z,66.97
2019-02-02T12:50:04.833Z,68.63
2019-02-02T12:52:31.972Z,69.00
2019-02-02T12:54:59.101Z,65.23
2019-02-02T12:57:26.456Z,67.93
2019-02-02T12:59:53.772Z,79.80
2019-02-02T13:02:20.856Z,68.33
2019-02-02T13:04:47.912Z,63.93
2019-02-02T13:07:15.025Z,66.37
2019-02-02T13:09:42.131Z,65.13
2019-02-02T13:12:09.219Z,69.50
2019-02-02T13:14:36.406Z,67.90
2019-02-02T13:17:03.707Z,68.87
2019-02-02T13:19:30.920Z,65.43
2019-02-02T13:21:57.985Z,65.37
2019-02-02T13:24:25.094Z,65.27
2019-02-02T13:26:52.146Z,65.93
2019-02-02T13:29:19.291Z,65.03
2019-02-02T13:31:46.359Z,63.80
2019-02-02T13:34:13.479Z,58.97
2019-02-02T13:36:40.605Z,61.20
2019-02-02T13:39:10.574Z,58.00
2019-02-02T13:41:37.782Z,59.30
2019-02-02T13:44:04.894Z,61.07
2019-02-02T13:46:33.864Z,57.90
2019-02-02T13:49:00.935Z,63.63
2019-02-02T13:51:28.071Z,58.30
2019-02-02T13:53:55.158Z,56.97
2019-02-02T13:56:22.348Z,61.73
2019-02-02T13:58:49.474Z,55.50
2019-02-02T14:01:16.561Z,61.40
2019-02-02T14:03:43.673Z,61.83
2019-02-02T14:06:10.799Z,58.47
2019-02-02T14:08:37.859Z,51.87
2019-02-02T14:11:05.014Z,54.30
2019-02-02T14:13:33.182Z,52.87
2019-02-02T14:16:00.233Z,58.40
2019-02-02T14:18:27.439Z,53.93
2019-02-02T14:20:54.643Z,52.63
2019-02-02T14:23:21.705Z,49.53
2019-02-02T14:25:48.746Z,51.13
2019-02-02T14:28:27.590Z,50.17
2019-02-02T14:30:44.861Z,51.50
2019-02-02T14:33:14.200Z,49.87
2019-02-02T14:35:41.107Z,46.83
2019-02-02T14:38:08.382Z,47.70
2019-02-02T14:40:35.472Z,47.50
2019-02-02T14:43:02.833Z,49.87
2019-02-02T14:45:30.007Z,48.40
2019-02-02T14:47:57.390Z,48.00
2019-02-02T14:50:24.522Z,47.00
2019-02-02T14:52:55.016Z,47.20
2019-02-02T14:55:26.757Z,48.70
2019-02-02T14:57:54.237Z,49.00
2019-02-02T15:00:23.550Z,48.10
2019-02-02T15:02:50.700Z,50.00
2019-02-02T15:05:20.243Z,51.67
2019-02-02T15:07:48.655Z,48.53
2019-02-02T15:10:16.769Z,51.93
2019-02-02T15:12:43.965Z,50.73
2019-02-02T15:15:11.828Z,52.23
2019-02-02T15:17:39.002Z,50.73
2019-02-02T15:20:11.000Z,52.40
2019-02-02T15:22:38.257Z,51.23
2019-02-02T15:25:05.995Z,54.33
2019-02-02T15:27:33.172Z,55.87
2019-02-02T15:30:00.350Z,58.87
2019-02-02T15:32:28.231Z,92.13
2019-02-02T15:34:55.479Z,61.10
2019-02-02T15:37:22.622Z,62.67
2019-02-02T15:39:49.824Z,57.63
2019-02-02T15:42:17.009Z,59.20
2019-02-02T15:44:44.045Z,63.70
2019-02-02T15:47:11.126Z,62.17
2019-02-02T15:49:38.214Z,59.80
2019-02-02T15:52:05.344Z,64.73
2019-02-02T15:54:32.499Z,62.60
2019-02-02T15:56:59.701Z,61.97
2019-02-02T15:59:26.800Z,59.70
2019-02-02T16:01:54.043Z,67.07
2019-02-02T16:04:21.168Z,62.97
2019-02-02T16:06:48.336Z,62.83
2019-02-02T16:09:15.521Z,62.90
2019-02-02T16:11:42.663Z,61.70
2019-02-02T16:14:09.967Z,64.47
2019-02-02T16:16:37.143Z,60.07
2019-02-02T16:19:04.494Z,63.90
2019-02-02T16:21:31.578Z,62.03
2019-02-02T16:23:58.746Z,66.63
2019-02-02T16:26:25.804Z,65.23
2019-02-02T16:28:52.916Z,68.27
2019-02-02T16:31:20.088Z,63.27
2019-02-02T16:33:47.159Z,65.87
2019-02-02T16:36:14.306Z,66.70
2019-02-02T16:38:41.434Z,65.80
2019-02-02T16:41:08.636Z,63.83
2019-02-02T16:43:35.853Z,68.57
2019-02-02T16:46:03.644Z,64.20
2019-02-02T16:48:30.688Z,61.53
2019-02-02T16:50:57.820Z,62.77
2019-02-02T16:53:24.997Z,62.97
2019-02-02T16:55:52.173Z,64.00
2019-02-02T16:58:19.238Z,61.70
2019-02-02T17:00:46.402Z,64.33
2019-02-02T17:03:13.675Z,63.43
2019-02-02T17:05:40.891Z,61.97
2019-02-02T17:08:08.051Z,62.07
2019-02-02T17:10:36.436Z,60.17
2019-02-02T17:13:05.186Z,62.47
2019-02-02T17:15:32.236Z,60.50
2019-02-02T17:17:59.649Z,58.77
2019-02-02T17:20:32.484Z,61.67
2019-02-02T17:22:59.566Z,61.37
2019-02-02T17:25:27.073Z,59.73
2019-02-02T17:27:55.418Z,62.33
2019-02-02T17:30:23.035Z,59.63
2019-02-02T17:32:51.724Z,58.87
2019-02-02T17:35:19.105Z,60.80
2019-02-02T17:37:46.270Z,58.87
2019-02-02T17:40:16.236Z,64.57
2019-02-02T17:42:43.632Z,59.30
2019-02-02T17:45:13.120Z,60.07
2019-02-02T17:47:40.256Z,58.90
2019-02-02T17:50:11.354Z,58.90
2019-02-02T17:52:39.589Z,57.67
2019-02-02T17:55:07.616Z,60.87
2019-02-02T17:57:34.790Z,62.97
2019-02-02T18:00:02.271Z,62.87
2019-02-02T18:02:30.194Z,73.60
2019-02-02T18:04:57.501Z,67.27
2019-02-02T18:07:24.646Z,62.43
2019-02-02T18:09:51.923Z,61.73
2019-02-02T18:12:19.088Z,63.27
2019-02-02T18:14:46.202Z,60.70
2019-02-02T18:17:13.292Z,63.30
2019-02-02T18:19:40.432Z,60.70
2019-02-02T18:22:07.628Z,58.70
2019-02-02T18:24:34.880Z,58.40
2019-02-02T18:27:02.170Z,57.43
2019-02-02T18:29:29.385Z,57.93
2019-02-02T18:31:56.590Z,57.97
2019-02-02T18:34:23.856Z,59.30
2019-02-02T18:36:51.020Z,54.97
2019-02-02T18:39:18.206Z,57.20
2019-02-02T18:41:45.361Z,64.40
2019-02-02T18:44:12.739Z,60.13
2019-02-02T18:46:39.789Z,57.33
2019-02-02T18:49:06.893Z,59.23
2019-02-02T18:51:34.025Z,63.43
2019-02-02T18:54:01.102Z,61.60
2019-02-02T18:56:28.171Z,61.50
2019-02-02T18:58:55.264Z,58.57
2019-02-02T19:01:22.538Z,59.23
2019-02-02T19:03:49.668Z,60.60
2019-02-02T19:06:16.735Z,59.83
2019-02-02T19:08:44.067Z,60.63
2019-02-02T19:11:11.202Z,57.87
2019-02-02T19:13:38.497Z,58.07
2019-02-02T19:16:05.530Z,58.60
2019-02-02T19:18:32.843Z,58.43
2019-02-02T19:20:59.973Z,57.73
2019-02-02T19:23:27.124Z,57.40
2019-02-02T19:25:54.188Z,56.23
2019-02-02T19:28:21.292Z,55.97
2019-02-02T19:30:48.407Z,56.77
2019-02-02T19:33:15.521Z,58.00
2019-02-02T19:35:42.647Z,55.83
2019-02-02T19:38:10.857Z,55.20
2019-02-02T19:40:38.090Z,56.27
2019-02-02T19:43:05.400Z,59.63
2019-02-02T19:45:32.459Z,57.57
2019-02-02T19:47:59.887Z,59.23
2019-02-02T19:50:27.028Z,57.27
2019-02-02T19:52:54.647Z,58.50
2019-02-02T19:55:22.108Z,59.67
2019-02-02T19:57:49.323Z,58.57
2019-02-02T20:00:18.616Z,57.50
2019-02-02T20:02:45.677Z,57.63
2019-02-02T20:05:13.145Z,65.00
2019-02-02T20:07:40.306Z,63.53
2019-02-02T20:10:10.251Z,63.57
2019-02-02T20:12:37.361Z,63.47
2019-02-02T20:15:06.474Z,64.00
2019-02-02T20:17:33.807Z,63.27
2019-02-02T20:20:00.865Z,61.67
2019-02-02T20:22:28.062Z,66.77
2019-02-02T20:24:55.284Z,64.97
2019-02-02T20:27:22.396Z,67.27
2019-02-02T20:29:50.064Z,65.87
2019-02-02T20:32:17.793Z,64.13
2019-02-02T20:34:44.865Z,68.30
2019-02-02T20:37:12.070Z,68.83
2019-02-02T20:39:39.170Z,68.33
2019-02-02T20:42:06.307Z,69.33
2019-02-02T20:44:33.504Z,66.83
2019-02-02T20:47:03.110Z,66.63
2019-02-02T20:49:29.581Z,66.00
2019-02-02T20:51:56.791Z,75.50
2019-02-02T20:54:24.105Z,75.70
2019-02-02T20:56:51.142Z,64.90
2019-02-02T20:59:19.012Z,63.67
2019-02-02T21:01:46.101Z,60.73
2019-02-02T21:04:13.156Z,57.87
2019-02-02T21:06:40.223Z,57.63
2019-02-02T21:09:07.433Z,55.63
2019-02-02T21:11:34.519Z,55.10
2019-02-02T21:14:01.708Z,56.47
2019-02-02T21:16:28.909Z,53.43
2019-02-02T21:18:56.089Z,60.70
2019-02-02T21:21:23.394Z,58.87
2019-02-02T21:23:50.457Z,58.17
2019-02-02T21:26:17.848Z,55.83
2019-02-02T21:28:50.560Z,55.20
2019-02-02T21:31:13.949Z,55.77
2019-02-02T21:33:41.054Z,57.67
2019-02-02T21:36:08.216Z,60.33
2019-02-02T21:38:36.450Z,57.80
2019-02-02T21:41:07.325Z,56.80
2019-02-02T21:43:34.446Z,54.07
2019-02-02T21:46:02.134Z,54.23
2019-02-02T21:48:29.187Z,51.53
2019-02-02T21:50:56.306Z,50.77
2019-02-02T21:53:23.849Z,50.63
2019-02-02T21:55:51.150Z,50.13
2019-02-02T21:58:18.192Z,48.57
2019-02-02T22:00:45.646Z,51.30
2019-02-02T22:03:12.915Z,50.67
2019-02-02T22:05:40.261Z,49.83
2019-02-02T22:08:09.067Z,47.10
2019-02-02T22:10:36.542Z,49.17
2019-02-02T22:13:05.320Z,48.13
2019-02-02T22:15:32.461Z,51.23
2019-02-02T22:17:59.522Z,49.13
2019-02-02T22:20:26.684Z,46.97
2019-02-02T22:22:54.006Z,49.50
2019-02-02T22:25:25.517Z,50.03
2019-02-02T22:27:52.689Z,51.97
2019-02-02T22:30:24.656Z,50.97
2019-02-02T22:32:51.874Z,50.70
2019-02-02T22:35:19.038Z,52.57
2019-02-02T22:37:46.409Z,51.90
2019-02-02T22:40:15.984Z,49.93
2019-02-02T22:42:43.234Z,50.83
2019-02-02T22:45:13.050Z,48.00
2019-02-02T22:47:40.474Z,49.20
2019-02-02T22:50:09.656Z,52.30
2019-02-02T22:52:36.979Z,52.57
2019-02-02T22:55:05.552Z,52.20
2019-02-02T22:57:32.622Z,54.90
2019-02-02T22:59:59.797Z,56.13
2019-02-02T23:02:26.933Z,55.87
2019-02-02T23:05:44.694Z,53.90
2019-02-02T23:08:44.822Z,56.70
2019-02-02T23:11:30.102Z,56.67
2019-02-02T23:14:30.206Z,56.20
2019-02-02T23:16:57.631Z,57.20
2019-02-02T23:19:24.809Z,57.87
2019-02-02T23:21:52.097Z,52.77
2019-02-02T23:24:19.192Z,54.83
2019-02-02T23:26:46.795Z,60.53
2019-02-02T23:29:13.913Z,59.00
2019-02-02T23:31:40.986Z,59.67
2019-02-02T23:34:08.150Z,62.53
2019-02-02T23:36:35.244Z,61.37
2019-02-02T23:39:04.118Z,61.57
2019-02-02T23:41:31.174Z,62.00
2019-02-02T23:43:58.258Z,65.87
2019-02-02T23:46:25.334Z,63.90
2019-02-02T23:48:52.490Z,62.67
2019-02-02T23:51:19.625Z,63.13
2019-02-02T23:53:46.701Z,65.00
2019-02-02T23:56:13.973Z,64.97
2019-02-02T23:58:41.485Z,69.30
